Time;durP1;ratioP1;P1;durP2;ratioP2;P2;SDS_P1;SDS_P2;PMS_P1;PMS_P2;Temp;Humidity;BMP_temperature;BMP_pressure;BME280_temperature;BME280_humidity;BME280_pressure;Samples;Min_cycle;Max_cycle;Signal;HPM_P1;HPM_P2
2023/07/11 00:01:17;;;;;;;12.90;12.50;;;;;;;-141.02;100.00;46208.72;5133906;27;20184;-65
2023/07/11 00:03:46;;;;;;;13.20;12.80;;;;;;;-141.02;100.00;46831.38;5133711;27;20289;-60
2023/07/11 00:09:49;;;;;;;13.60;13.10;;;;;;;-141.02;100.00;47406.13;5130923;27;20284;-57
2023/07/11 00:23:01;;;;;;;16.00;15.30;;;;;;;-141.02;100.00;44710.13;5133492;27;20195;-58
2023/07/11 00:26:19;;;;;;;15.77;15.07;;;;;;;-141.02;100.00;44879.16;5133490;27;20283;-56
2023/07/11 00:29:20;;;;;;;15.52;14.82;;;;;;;-141.02;100.00;45217.28;5133113;27;20689;-57
2023/07/11 00:31:47;;;;;;;14.95;14.35;;;;;;;-141.02;100.00;45653.38;5133144;27;20189;-59
2023/07/11 00:34:35;;;;;;;14.80;14.20;;;;;;;-141.02;100.00;46026.16;5132935;27;20680;-58
2023/07/11 00:37:37;;;;;;;14.35;13.85;;;;;;;-141.02;100.00;46233.69;5133320;27;20200;-57
2023/07/11 00:40:55;;;;;;;14.55;14.05;;;;;;;-141.02;100.00;46254.81;5133279;27;20342;-59
2023/07/11 00:43:23;;;;;;;14.15;13.65;;;;;;;-141.02;100.00;46350.91;5132910;27;20196;-61
2023/07/11 00:53:10;;;;;;;15.23;14.63;;;;;;;-141.02;100.00;45213.44;5132936;28;20176;-59
2023/07/11 00:56:04;;;;;;;15.95;15.25;;;;;;;-141.02;100.00;45067.44;5134427;27;20573;-58
2023/07/11 00:58:33;;;;;;;15.32;14.73;;;;;;;-141.02;100.00;45328.69;5137328;27;20658;-58
2023/07/11 01:04:30;;;;;;;14.90;14.30;;;;;;;-141.02;100.00;45686.06;5137358;27;20196;-57
2023/07/11 01:13:42;;;;;;;13.40;13.00;;;;;;;-141.02;100.00;47446.50;5137569;27;20180;-57
2023/07/11 01:26:58;;;;;;;12.82;12.43;;;;;;;-141.02;100.00;49069.38;5136892;27;20180;-65
2023/07/11 01:30:03;;;;;;;12.30;11.90;;;;;;;-141.02;100.00;49873.41;5136798;27;20196;-57
2023/07/11 01:33:08;;;;;;;12.10;11.70;;;;;;;-141.02;100.00;50958.56;5136712;27;20567;-56
2023/07/11 01:39:00;;;;;;;11.23;10.93;;;;;;;-141.02;100.00;53542.06;5136278;27;20219;-58
2023/07/11 01:41:29;;;;;;;11.10;10.80;;;;;;;-141.02;100.00;54971.34;5136241;27;20181;-56
2023/07/11 01:44:35;;;;;;;11.07;10.77;;;;;;;-141.02;100.00;55772.94;5136277;27;20279;-61
2023/07/11 01:47:07;;;;;;;11.13;10.82;;;;;;;-141.02;100.00;56513.03;5136422;27;20227;-60
2023/07/11 01:52:56;;;;;;;10.30;10.00;;;;;;;-141.02;100.00;58734.28;5136424;27;20694;-57
2023/07/11 02:02:04;;;;;;;9.80;9.50;;;;;;;-141.02;100.00;62439.59;5093211;28;20196;-59
2023/07/11 02:08:28;;;;;;;10.80;10.50;;;;;;;-141.02;100.00;60462.94;5093013;28;20216;-60
2023/07/11 02:21:02;;;;;;;11.20;10.90;;;;;;;-141.02;100.00;59968.94;5092610;28;20181;-61
2023/07/11 02:23:28;;;;;;;11.10;10.80;;;;;;;-141.02;100.00;60462.94;5092594;28;20277;-64
2023/07/11 02:25:56;;;;;;;10.90;10.60;;;;;;;-141.02;100.00;61204.03;5092429;28;20211;-59
2023/07/11 02:28:23;;;;;;;11.05;10.75;;;;;;;-141.02;100.00;61945.31;5103856;27;20589;-60
2023/07/11 02:30:50;;;;;;;10.75;10.45;;;;;;;-141.02;100.00;62439.59;5135290;27;20737;-57
2023/07/11 02:33:17;;;;;;;10.45;10.15;;;;;;;-141.02;100.00;62439.59;5135280;27;20235;-57
2023/07/11 02:35:44;;;;;;;10.70;10.40;;;;;;;-141.02;100.00;61945.31;5135199;27;20678;-56
2023/07/11 02:38:12;;;;;;;10.18;9.88;;;;;;;-141.02;100.00;64170.13;5135088;27;20320;-66
2023/07/11 02:40:39;;;;;;;10.07;9.77;;;;;;;-141.02;100.00;65159.41;5135455;27;20280;-60
2023/07/11 02:43:06;;;;;;;10.05;9.75;;;;;;;-141.02;100.00;65654.13;5135073;27;20238;-62
2023/07/11 02:45:33;;;;;;;10.32;10.02;;;;;;;-141.02;100.00;65654.13;5134934;27;20207;-61
2023/07/11 02:48:00;;;;;;;10.50;10.20;;;;;;;-141.02;100.00;66643.84;5135001;27;20206;-58
2023/07/11 02:50:27;;;;;;;10.00;9.70;;;;;;;-141.02;100.00;68128.91;5135309;27;20192;-56
2023/07/11 02:52:54;;;;;;;9.57;9.27;;;;;;;-141.02;100.00;69366.97;5135137;27;20283;-59
2023/07/11 02:55:22;;;;;;;9.35;9.05;;;;;;;-141.02;100.00;70853.25;5134790;27;20654;-64
2023/07/11 02:57:49;;;;;;;8.90;8.70;;;;;;;-141.02;100.00;72835.97;5134736;27;20188;-56
2023/07/11 03:00:17;;;;;;;8.38;8.18;;;;;;;-141.02;100.00;74819.81;5135105;27;20193;-60
2023/07/11 03:02:44;;;;;;;8.57;8.38;;;;;;;-141.02;100.00;76556.59;5134958;27;20192;-57
2023/07/11 03:05:11;;;;;;;8.18;7.97;;;;;;;-141.02;100.00;77797.72;5135513;27;20238;-58
2023/07/11 03:07:38;;;;;;;7.97;7.78;;;;;;;-141.02;100.00;79039.28;5134952;27;20224;-56
2023/07/11 03:10:06;;;;;;;7.70;7.50;;;;;;;-141.02;100.00;80281.31;5134562;27;20566;-65
2023/07/11 03:12:34;;;;;;;7.90;7.70;;;;;;;-141.02;100.00;81275.25;5134541;27;20242;-56
2023/07/11 03:15:01;;;;;;;8.90;8.70;;;;;;;-141.02;100.00;82020.88;5134435;27;20570;-57
2023/07/11 03:17:28;;;;;;;8.25;8.05;;;;;;;-141.02;100.00;81523.75;5134315;27;20192;-65
2023/07/11 03:19:55;;;;;;;9.10;8.90;;;;;;;-141.02;100.00;80778.25;5133835;27;20723;-63
2023/07/11 03:22:22;;;;;;;9.70;9.40;;;;;;;-141.02;100.00;80032.88;5134674;27;20218;-62
2023/07/11 03:24:49;;;;;;;9.90;9.60;;;;;;;-141.02;100.00;80032.88;5134602;27;20662;-64
2023/07/11 03:27:53;;;;;;;10.20;9.90;;;;;;;-141.02;100.00;80032.88;5134209;27;20268;-60
2023/07/11 03:33:43;;;;;;;9.30;9.00;;;;;;;-141.02;100.00;81026.72;5134300;27;20650;-57
2023/07/11 03:36:11;;;;;;;9.60;9.30;;;;;;;-141.02;100.00;80778.25;5134342;27;20628;-61
2023/07/11 03:38:39;;;;;;;9.70;9.40;;;;;;;-141.02;100.00;81026.72;5134296;27;20247;-63
2023/07/11 03:41:06;;;;;;;10.55;10.25;;;;;;;-141.02;100.00;81523.75;5133945;27;20200;-59
2023/07/11 03:43:33;;;;;;;10.00;9.70;;;;;;;-141.02;100.00;82766.69;5134159;27;20228;-62
2023/07/11 03:46:00;;;;;;;10.80;10.50;;;;;;;-141.02;100.00;82269.47;5134188;27;20193;-56
2023/07/11 03:48:27;;;;;;;11.30;11.00;;;;;;;-141.02;100.00;80281.31;5133734;27;20203;-57
2023/07/11 03:50:55;;;;;;;12.00;11.60;;;;;;;-141.02;100.00;79536.03;5134243;27;20192;-59
2023/07/11 03:53:23;;;;;;;12.70;12.30;;;;;;;-141.02;100.00;79536.03;5133755;27;20737;-60
2023/07/11 03:55:50;;;;;;;12.85;12.45;;;;;;;-141.02;100.00;78790.94;5133761;27;20193;-57
2023/07/11 03:58:17;;;;;;;13.00;12.60;;;;;;;-141.02;100.00;78046.00;5133617;27;20278;-57
2023/07/11 04:00:46;;;;;;;13.18;12.77;;;;;;;-141.02;100.00;78046.00;5134218;27;20235;-60
2023/07/11 04:03:13;;;;;;;14.18;13.68;;;;;;;-141.02;100.00;77053.00;5133607;27;20203;-63
2023/07/11 04:05:42;;;;;;;14.80;14.20;;;;;;;-141.02;100.00;76556.59;5133618;27;20203;-63
2023/07/11 04:08:11;;;;;;;14.93;14.32;;;;;;;-141.02;100.00;76060.28;5133842;27;20271;-62
2023/07/11 04:10:38;;;;;;;15.50;14.80;;;;;;;-141.02;100.00;75564.03;5133531;27;20196;-58
2023/07/11 04:13:05;;;;;;;15.98;15.27;;;;;;;-141.02;100.00;74819.81;5133706;27;20206;-57
2023/07/11 04:15:32;;;;;;;16.90;16.10;;;;;;;-141.02;100.00;71844.47;5133767;27;20634;-56
2023/07/11 04:17:59;;;;;;;16.85;16.05;;;;;;;-141.02;100.00;71844.47;5133327;27;20288;-59
2023/07/11 04:20:26;;;;;;;17.52;16.63;;;;;;;-141.02;100.00;71101.03;5133586;27;20224;-60
2023/07/11 04:22:53;;;;;;;17.63;16.73;;;;;;;-141.02;100.00;71348.81;5133554;27;20196;-63
2023/07/11 04:25:25;;;;;;;18.08;17.17;;;;;;;-141.02;100.00;70853.25;5133275;27;20279;-58
2023/07/11 04:27:52;;;;;;;18.58;17.48;;;;;;;-141.02;100.00;70357.75;5133202;27;20663;-61
2023/07/11 04:30:19;;;;;;;19.02;17.83;;;;;;;-141.02;100.00;69119.34;5132598;27;20271;-57
2023/07/11 04:32:45;;;;;;;19.42;18.23;;;;;;;-141.02;97.04;67386.28;5133656;27;20275;-60
2023/07/11 04:35:14;;;;;;;19.88;18.67;;;;;;;-141.02;93.28;65406.75;5133669;27;20228;-58
2023/07/11 04:37:41;;;;;;;19.80;18.63;;;;;;;-141.02;90.37;66643.84;5133106;27;20659;-57
2023/07/11 04:40:10;;;;;;;20.52;19.23;;;;;;;-141.02;90.38;66396.38;5133220;27;20307;-60
2023/07/11 04:42:39;;;;;;;20.88;19.58;;;;;;;-141.02;85.53;67138.78;5133000;27;20232;-57
2023/07/11 04:45:07;;;;;;;21.13;19.83;;;;;;;-141.02;76.60;66148.94;5133286;27;20192;-57
2023/07/11 04:47:34;;;;;;;21.83;20.42;;;;;;;-141.02;76.91;63675.59;5133019;27;20574;-58
2023/07/11 04:50:01;;;;;;;21.77;20.38;;;;;;;-141.02;76.28;65406.75;5132935;27;20568;-64
2023/07/11 04:52:28;;;;;;;22.00;20.60;;;;;;;-141.02;74.47;65406.75;5133198;28;20243;-66
2023/07/11 04:54:55;;;;;;;21.35;20.05;;;;;;;-141.02;75.78;65159.41;5133190;28;20241;-59
2023/07/11 04:57:23;;;;;;;24.20;22.50;;;;;;;-141.02;79.11;63675.59;5133208;28;20242;-59
2023/07/11 04:59:51;;;;;;;24.30;22.70;;;;;;;-141.02;86.96;62439.59;5133086;28;20316;-67
2023/07/11 05:02:18;;;;;;;23.08;21.58;;;;;;;-141.02;88.21;61945.31;5133129;28;20196;-59
2023/07/11 05:04:45;;;;;;;21.70;20.20;;;;;;;-141.02;90.14;61451.13;5133048;28;20216;-58
2023/07/11 05:07:12;;;;;;;20.25;18.85;;;;;;;-141.02;90.40;61945.31;5133147;28;20231;-61
2023/07/11 05:09:39;;;;;;;20.90;19.60;;;;;;;-141.02;91.91;62686.75;5132740;28;20279;-62
2023/07/11 05:12:06;;;;;;;20.80;19.50;;;;;;;-141.02;94.26;63428.38;5132740;28;20315;-65
2023/07/11 05:14:33;;;;;;;22.50;21.20;;;;;;;-141.02;90.57;63675.59;5132718;28;20570;-60
2023/07/11 05:17:01;;;;;;;21.73;20.42;;;;;;;-141.02;89.75;63922.84;5132702;28;20481;-57
2023/07/11 05:19:28;;;;;;;21.35;19.90;;;;;;;-141.02;90.19;63922.84;5132595;28;20311;-66
2023/07/11 05:21:55;;;;;;;21.20;19.90;;;;;;;-141.02;88.97;64417.41;5133266;28;20195;-67
2023/07/11 05:24:22;;;;;;;21.85;20.50;;;;;;;-141.02;89.71;63428.38;5132936;27;20188;-59
2023/07/11 05:26:49;;;;;;;21.10;19.70;;;;;;;-141.02;89.94;62933.94;5133760;28;20279;-60
2023/07/11 05:29:16;;;;;;;21.08;19.67;;;;;;;-141.02;90.92;61945.31;5132524;28;20714;-64
2023/07/11 05:31:43;;;;;;;20.33;19.02;;;;;;;-141.02;93.10;61451.13;5132558;28;20652;-60
2023/07/11 05:34:12;;;;;;;21.55;20.25;;;;;;;-141.02;94.76;62439.59;5132714;28;20279;-57
2023/07/11 05:36:39;;;;;;;21.48;20.17;;;;;;;-141.02;97.10;62933.94;5133295;28;20654;-59
2023/07/11 05:39:10;;;;;;;20.23;18.92;;;;;;;-141.02;94.43;62686.75;5132455;28;20260;-57
2023/07/11 05:41:41;;;;;;;19.83;18.52;;;;;;;-141.02;94.69;62686.75;5133786;27;20245;-62
2023/07/11 05:44:09;;;;;;;19.90;18.60;;;;;;;-141.02;94.34;62439.59;5136389;27;20189;-63
2023/07/11 05:46:36;;;;;;;21.20;20.00;;;;;;;-141.02;92.88;63181.16;5136491;27;20249;-59
2023/07/11 05:49:04;;;;;;;22.33;21.02;;;;;;;-141.02;89.23;62933.94;5136331;27;20653;-67
2023/07/11 05:51:32;;;;;;;21.75;20.45;;;;;;;-141.02;90.37;62439.59;5136157;27;20283;-60
2023/07/11 05:53:59;;;;;;;21.20;20.00;;;;;;;-141.02;91.03;64170.13;5136233;27;20242;-60
2023/07/11 05:56:27;;;;;;;20.50;19.30;;;;;;;-141.02;91.82;64664.72;5136007;27;20224;-67
2023/07/11 05:58:55;;;;;;;21.15;19.95;;;;;;;-141.02;88.19;63181.16;5136007;27;20723;-63
2023/07/11 06:01:24;;;;;;;19.98;18.88;;;;;;;-141.02;90.07;64417.41;5136325;27;20207;-64
2023/07/11 06:03:52;;;;;;;21.25;19.95;;;;;;;-141.02;89.32;64170.13;5136240;27;20218;-62
2023/07/11 06:06:20;;;;;;;21.08;19.88;;;;;;;-141.02;89.92;63922.84;5136153;27;20237;-58
2023/07/11 06:08:49;;;;;;;21.08;19.77;;;;;;;-141.02;90.29;62439.59;5135811;27;20188;-58
2023/07/11 06:11:16;;;;;;;21.55;20.25;;;;;;;-141.02;88.14;64170.13;5135901;27;20233;-58
2023/07/11 06:13:43;;;;;;;21.50;20.15;;;;;;;-141.02;86.69;60957.00;5135722;27;20243;-63
2023/07/11 06:16:16;;;;;;;21.05;19.75;;;;;;;-141.02;87.73;60462.94;5135785;27;20193;-59
2023/07/11 06:18:43;;;;;;;21.75;20.40;;;;;;;-141.02;87.11;62686.75;5135874;27;20180;-62
2023/07/11 06:21:13;;;;;;;21.02;19.73;;;;;;;-141.02;90.46;63922.84;5135986;27;20247;-61
2023/07/11 06:23:40;;;;;;;19.08;17.98;;;;;;;-141.02;90.01;63922.84;5135921;27;20287;-63
2023/07/11 06:26:10;;;;;;;19.63;18.42;;;;;;;-141.02;88.13;60957.00;5135857;27;20287;-63
2023/07/11 06:28:37;;;;;;;19.58;18.48;;;;;;;-141.02;89.61;61451.13;5135728;27;20192;-62
2023/07/11 06:31:04;;;;;;;19.33;18.23;;;;;;;-141.02;89.92;63428.38;5135684;27;20280;-61
2023/07/11 06:33:31;;;;;;;20.15;18.95;;;;;;;-141.02;86.80;65654.13;5135665;27;20230;-66
2023/07/11 06:35:58;;;;;;;20.80;19.52;;;;;;;-141.02;82.56;64664.72;5135620;27;20197;-61
2023/07/11 06:38:25;;;;;;;20.92;19.73;;;;;;;-141.02;83.78;65406.75;5135238;27;20246;-65
2023/07/11 06:40:54;;;;;;;20.98;19.67;;;;;;;-141.02;83.38;65654.13;5135103;27;20238;-60
2023/07/11 06:43:24;;;;;;;21.23;19.92;;;;;;;-141.02;83.06;63428.38;5135140;27;20196;-64
2023/07/11 06:45:53;;;;;;;20.80;19.50;;;;;;;-141.02;83.81;64170.13;5135494;27;20193;-67
2023/07/11 06:48:21;;;;;;;20.80;19.50;;;;;;;-141.02;82.71;65159.41;5135611;27;20196;-62
2023/07/11 06:50:51;;;;;;;20.73;19.42;;;;;;;-141.02;84.66;66148.94;5135026;27;20662;-64
2023/07/11 06:53:18;;;;;;;20.98;19.67;;;;;;;-141.02;82.64;65901.53;5133977;27;20704;-61
2023/07/11 06:55:46;;;;;;;20.98;19.67;;;;;;;-141.02;81.66;67386.28;5135209;27;20199;-58
2023/07/11 06:58:14;;;;;;;20.95;19.65;;;;;;;-141.02;81.15;64170.13;5135002;27;20204;-60
2023/07/11 07:00:42;;;;;;;21.33;20.02;;;;;;;-141.02;82.44;64664.72;5134755;27;20594;-63
2023/07/11 07:03:11;;;;;;;20.92;19.63;;;;;;;-141.02;80.27;65406.75;5134827;27;20676;-63
2023/07/11 07:05:38;;;;;;;20.75;19.45;;;;;;;-141.02;80.52;67138.78;5134830;27;20288;-62
2023/07/11 07:08:06;;;;;;;20.90;19.60;;;;;;;-141.02;78.91;66891.31;5134678;27;20646;-61
2023/07/11 07:10:33;;;;;;;21.23;19.92;;;;;;;-141.02;79.26;68624.09;5134607;27;20279;-58
2023/07/11 07:13:00;;;;;;;21.38;20.08;;;;;;;-141.02;78.02;67138.78;5134477;27;20262;-57
2023/07/11 07:15:27;;;;;;;21.73;20.35;;;;;;;-141.02;75.95;67138.78;5134909;27;20203;-59
2023/07/11 07:17:55;;;;;;;20.90;19.60;;;;;;;-141.02;81.39;64912.06;5134481;27;20188;-62
2023/07/11 07:20:22;;;;;;;20.05;18.85;;;;;;;-141.02;83.77;66891.31;5134733;27;20224;-62
2023/07/11 07:22:49;;;;;;;20.15;18.95;;;;;;;-141.02;83.79;66643.84;5134828;27;20284;-60
2023/07/11 07:25:16;;;;;;;20.52;19.33;;;;;;;-141.02;82.03;64912.06;5134652;27;20239;-59
2023/07/11 07:27:43;;;;;;;20.08;18.88;;;;;;;-141.02;86.17;66891.31;5134331;27;20730;-57
2023/07/11 07:30:11;;;;;;;20.60;19.40;;;;;;;-141.02;86.29;65901.53;5134202;27;20276;-63
2023/07/11 07:32:38;;;;;;;20.48;19.27;;;;;;;-141.02;85.36;67386.28;5134523;27;20188;-63
2023/07/11 07:35:08;;;;;;;20.25;19.05;;;;;;;-141.02;82.20;67386.28;5134149;27;20192;-60
2023/07/11 07:37:36;;;;;;;20.63;19.42;;;;;;;-141.02;82.80;66396.38;5134533;27;20193;-66
2023/07/11 07:40:03;;;;;;;20.52;19.33;;;;;;;-141.02;85.95;68128.91;5134215;27;20647;-60
2023/07/11 07:42:30;;;;;;;21.90;20.60;;;;;;;-141.02;83.41;69614.66;5134639;27;20283;-66
2023/07/11 07:44:57;;;;;;;20.80;19.60;;;;;;;-141.02;81.45;71101.03;5133971;27;20275;-65
2023/07/11 07:47:24;;;;;;;21.85;20.55;;;;;;;-141.02;78.04;70110.03;5133880;27;20672;-61
2023/07/11 07:49:51;;;;;;;22.05;20.65;;;;;;;-141.02;77.00;71101.03;5134040;27;20271;-61
2023/07/11 07:52:19;;;;;;;21.30;20.00;;;;;;;-141.02;78.56;70110.03;5133810;27;20235;-63
2023/07/11 07:54:46;;;;;;;21.35;20.05;;;;;;;-141.02;79.66;68376.50;5133837;27;20193;-57
2023/07/11 07:57:13;;;;;;;21.17;19.88;;;;;;;-141.02;80.72;68376.50;5134121;27;20232;-64
2023/07/11 07:59:40;;;;;;;20.80;19.50;;;;;;;-141.02;81.24;68871.72;5133567;27;20264;-58
2023/07/11 08:02:09;;;;;;;20.75;19.48;;;;;;;-141.02;81.09;70110.03;5134469;27;20199;-60
2023/07/11 08:04:36;;;;;;;20.75;19.45;;;;;;;-141.02;76.72;69862.34;5133438;27;20232;-63
2023/07/11 08:07:03;;;;;;;21.50;20.17;;;;;;;-141.02;75.36;69862.34;5133940;27;20279;-63
2023/07/11 08:09:32;;;;;;;21.13;19.83;;;;;;;-141.02;76.11;70357.75;5133890;27;20193;-62
2023/07/11 08:12:05;;;;;;;20.90;19.60;;;;;;;-141.02;77.11;70357.75;5133520;27;20579;-66
2023/07/11 08:14:36;;;;;;;21.90;20.50;;;;;;;-141.02;77.75;71596.63;5133754;27;20219;-64
2023/07/11 08:17:03;;;;;;;22.17;20.77;;;;;;;-141.02;76.02;70853.25;5133434;27;20693;-61
2023/07/11 08:19:30;;;;;;;21.55;20.15;;;;;;;-141.02;73.70;71596.63;5133812;27;20231;-62
2023/07/11 08:21:57;;;;;;;22.30;20.90;;;;;;;-141.02;72.14;71348.81;5133612;27;20224;-64
2023/07/11 08:24:25;;;;;;;21.98;20.58;;;;;;;-141.02;76.58;73827.72;5133669;27;20197;-64
2023/07/11 08:26:53;;;;;;;21.80;20.40;;;;;;;-141.02;71.67;71348.81;5133219;27;20709;-63
2023/07/11 08:29:20;;;;;;;21.65;20.25;;;;;;;-141.02;71.30;70605.50;5133520;27;20196;-64
2023/07/11 08:31:47;;;;;;;21.77;20.27;;;;;;;-141.02;72.16;69614.66;5133473;27;20304;-68
2023/07/11 08:34:15;;;;;;;22.00;20.60;;;;;;;-141.02;73.23;70110.03;5133368;27;20234;-59
2023/07/11 08:36:42;;;;;;;21.55;20.15;;;;;;;-141.02;72.13;71596.63;5133374;27;20312;-61
2023/07/11 08:39:09;;;;;;;21.65;20.25;;;;;;;-141.02;68.62;73331.81;5133060;27;20194;-63
2023/07/11 08:41:44;;;;;;;22.65;21.15;;;;;;;-141.02;66.52;73331.81;5133033;27;20228;-68
2023/07/11 08:44:17;;;;;;;22.77;21.27;;;;;;;-141.02;69.05;72340.16;5133237;27;20279;-68
2023/07/11 08:46:54;;;;;;;22.58;21.08;;;;;;;-141.02;67.60;72092.31;5132999;27;20613;-67
2023/07/11 08:49:27;;;;;;;22.45;20.95;;;;;;;-141.02;66.16;71844.47;5133477;27;20214;-67
2023/07/11 08:51:57;;;;;;;22.13;20.70;;;;;;;-141.02;65.65;70853.25;5133338;27;20188;-61
2023/07/11 08:54:30;;;;;;;22.02;20.52;;;;;;;-141.02;68.80;71101.03;5132867;28;20292;-64
2023/07/11 08:56:59;;;;;;;22.75;21.25;;;;;;;-141.02;68.17;70853.25;5132955;28;20692;-58
2023/07/11 08:59:36;;;;;;;22.88;21.38;;;;;;;-141.02;66.22;71844.47;5133143;28;20200;-59
2023/07/11 09:02:19;;;;;;;23.13;21.63;;;;;;;-141.02;66.05;72092.31;5133241;28;20191;-58
2023/07/11 09:04:53;;;;;;;23.05;21.55;;;;;;;-141.02;63.34;68624.09;5132770;27;20649;-62
2023/07/11 09:07:32;;;;;;;23.75;22.15;;;;;;;-141.02;61.68;67138.78;5132872;28;20593;-58
2023/07/11 09:09:59;;;;;;;23.55;22.05;;;;;;;-141.02;60.68;65654.13;5132857;27;20627;-62
2023/07/11 09:12:37;;;;;;;23.02;21.52;;;;;;;-141.02;64.31;69119.34;5132591;27;20229;-63
2023/07/11 09:15:13;;;;;;;23.80;22.20;;;;;;;-141.02;62.74;66396.38;5133085;27;20184;-64
2023/07/11 09:17:54;;;;;;;23.35;21.85;;;;;;;-141.02;63.05;68624.09;5135814;27;20191;-62
2023/07/11 09:20:30;;;;;;;23.45;21.95;;;;;;;-141.02;66.33;71348.81;5137085;27;20247;-66
2023/07/11 09:23:08;;;;;;;24.20;22.60;;;;;;;-141.02;56.96;68871.72;5137053;27;20290;-57
2023/07/11 09:25:40;;;;;;;24.17;22.58;;;;;;;-141.02;56.54;67881.38;5136783;27;20637;-66
2023/07/11 09:28:11;;;;;;;23.50;21.90;;;;;;;-141.02;57.41;65159.41;5136971;27;20224;-66
2023/07/11 09:30:45;;;;;;;23.08;21.58;;;;;;;-141.02;57.75;64912.06;5137048;27;20191;-58
2023/07/11 09:33:16;;;;;;;23.08;21.58;;;;;;;-141.02;57.52;65406.75;5136857;27;20547;-68
2023/07/11 09:35:45;;;;;;;22.85;21.35;;;;;;;-141.02;60.01;67881.38;5136887;27;20249;-65
2023/07/11 09:38:18;;;;;;;23.48;21.88;;;;;;;-141.02;56.05;64664.72;5136695;27;20200;-64
2023/07/11 09:40:50;;;;;;;22.98;21.48;;;;;;;-141.02;59.31;64664.72;5136407;27;20227;-64
2023/07/11 09:43:17;;;;;;;23.35;21.85;;;;;;;-141.02;57.41;64170.13;5136348;27;20224;-62
2023/07/11 09:45:46;;;;;;;23.67;22.08;;;;;;;-141.02;57.49;64912.06;5136335;27;20275;-67
2023/07/11 09:48:16;;;;;;;23.52;21.92;;;;;;;-141.02;56.71;63922.84;5136268;27;20235;-62
2023/07/11 09:51:01;;;;;;;23.88;22.27;;;;;;;-141.02;56.36;63428.38;5136279;27;20560;-66
2023/07/11 09:53:31;;;;;;;22.88;21.38;;;;;;;-141.02;58.93;66396.38;5136480;27;20212;-66
2023/07/11 09:55:59;;;;;;;23.52;21.92;;;;;;;-141.02;56.13;65406.75;5136416;27;20200;-61
2023/07/11 09:58:29;;;;;;;23.92;22.33;;;;;;;-141.02;54.76;64664.72;5136032;27;20354;-66
2023/07/11 10:01:01;;;;;;;24.63;22.95;;;;;;;-141.02;57.17;65159.41;5136011;27;20240;-66
2023/07/11 10:03:30;;;;;;;24.15;22.55;;;;;;;-141.02;59.31;66643.84;5136308;27;20192;-66
2023/07/11 10:05:57;;;;;;;23.95;22.35;;;;;;;-141.02;56.53;66148.94;5135971;27;20235;-64
2023/07/11 10:08:31;;;;;;;25.00;23.40;;;;;;;-141.02;56.50;65901.53;5136411;27;20207;-61
2023/07/11 10:11:03;;;;;;;24.60;23.00;;;;;;;-141.02;55.72;64912.06;5135956;27;20228;-64
2023/07/11 10:13:30;;;;;;;24.17;22.58;;;;;;;-141.02;56.21;65406.75;5136191;27;20299;-58
2023/07/11 10:16:00;;;;;;;23.45;21.90;;;;;;;-141.02;58.02;68376.50;5136078;27;20676;-61
2023/07/11 10:18:29;;;;;;;23.90;22.30;;;;;;;-141.02;54.20;66396.38;5135681;27;20676;-64
2023/07/11 10:20:58;;;;;;;24.45;22.85;;;;;;;-141.02;55.55;67138.78;5135809;27;20278;-66
2023/07/11 10:23:27;;;;;;;24.35;22.75;;;;;;;-141.02;52.98;66643.84;5135861;27;20266;-58
2023/07/11 10:25:55;;;;;;;25.17;23.48;;;;;;;-141.02;55.33;68871.72;5135445;27;20197;-61
2023/07/11 10:28:28;;;;;;;25.27;23.58;;;;;;;-141.02;53.63;67386.28;5134163;27;20199;-62
2023/07/11 10:30:58;;;;;;;24.67;22.98;;;;;;;-141.02;54.36;65901.53;5135717;27;20231;-61
2023/07/11 10:33:30;;;;;;;25.33;23.63;;;;;;;-141.02;53.80;67633.81;5135645;27;20658;-60
2023/07/11 10:36:06;;;;;;;24.92;23.23;;;;;;;-141.02;54.36;65654.13;5135366;27;20728;-61
2023/07/11 10:38:48;;;;;;;24.40;22.70;;;;;;;-141.02;53.80;64912.06;5135621;27;20188;-60
2023/07/11 10:41:19;;;;;;;24.95;23.25;;;;;;;-141.02;54.60;65159.41;5135815;27;20668;-67
2023/07/11 10:43:49;;;;;;;24.77;23.08;;;;;;;-141.02;54.67;68128.91;5135803;27;20196;-58
2023/07/11 10:46:24;;;;;;;25.10;23.40;;;;;;;-141.02;52.23;67138.78;5135144;27;20279;-58
2023/07/11 10:48:56;;;;;;;24.95;23.25;;;;;;;-141.02;52.99;68871.72;5135462;27;20695;-66
2023/07/11 10:51:27;;;;;;;25.50;23.80;;;;;;;-141.02;53.78;70357.75;5135369;27;20237;-58
2023/07/11 10:54:10;;;;;;;25.98;24.27;;;;;;;-141.02;50.47;68128.91;5135359;27;20195;-61
2023/07/11 10:56:41;;;;;;;25.45;23.75;;;;;;;-141.02;49.98;68128.91;5135314;27;20220;-66
2023/07/11 10:59:12;;;;;;;25.83;24.13;;;;;;;-141.02;50.38;63675.59;5135195;27;20265;-62
2023/07/11 11:01:48;;;;;;;24.77;23.17;;;;;;;-141.02;52.38;66148.94;5135049;27;20319;-58
2023/07/11 11:04:43;;;;;;;25.23;23.63;;;;;;;-141.02;51.58;67633.81;5135211;27;20188;-61
2023/07/11 11:07:18;;;;;;;25.67;23.98;;;;;;;-141.02;50.33;63181.16;5135104;27;20213;-58
2023/07/11 11:09:54;;;;;;;25.30;23.60;;;;;;;-141.02;52.40;66396.38;5135012;27;20214;-60
2023/07/11 11:12:35;;;;;;;25.48;23.77;;;;;;;-141.02;52.94;68624.09;5134589;27;20232;-63
2023/07/11 11:15:33;;;;;;;25.10;23.50;;;;;;;-141.02;50.91;66891.31;5134634;27;20191;-60
2023/07/11 11:18:29;;;;;;;25.10;23.45;;;;;;;-141.02;50.15;65654.13;5134926;27;20231;-61
2023/07/11 11:21:06;;;;;;;25.00;23.40;;;;;;;-141.02;50.35;65406.75;5129245;27;20311;-61
2023/07/11 11:23:47;;;;;;;35.53;32.83;;;;;;;-141.02;51.45;67386.28;5134865;27;20560;-58
2023/07/11 11:26:26;;;;;;;25.73;24.02;;;;;;;-141.02;52.12;67633.81;5134203;27;20184;-60
2023/07/11 11:29:05;;;;;;;24.88;23.27;;;;;;;-141.02;50.99;66148.94;5134317;27;20275;-59
2023/07/11 11:31:33;;;;;;;25.67;23.98;;;;;;;-141.02;51.77;67881.38;5134294;27;20188;-65
2023/07/11 11:34:25;;;;;;;25.38;23.67;;;;;;;-141.02;51.14;65901.53;5134480;27;20251;-63
2023/07/11 11:37:06;;;;;;;25.23;23.60;;;;;;;-141.02;52.83;67386.28;5134718;27;20184;-59
2023/07/11 11:39:50;;;;;;;44.67;40.05;;;;;;;-141.02;50.67;66396.38;5134001;27;20246;-68
2023/07/11 11:42:23;;;;;;;25.90;24.10;;;;;;;-141.02;50.58;68128.91;5134280;27;20251;-58
2023/07/11 11:44:54;;;;;;;24.85;23.20;;;;;;;-141.02;52.33;70357.75;5134383;27;20184;-58
2023/07/11 11:47:22;;;;;;;26.85;25.05;;;;;;;-141.02;49.63;69119.34;5134241;27;20180;-65
2023/07/11 11:49:50;;;;;;;26.98;25.17;;;;;;;-141.02;49.94;69366.97;5133971;27;20284;-60
2023/07/11 11:52:21;;;;;;;26.35;24.55;;;;;;;-141.02;49.66;69862.34;5134155;27;20197;-59
2023/07/11 11:54:49;;;;;;;26.48;24.67;;;;;;;-141.02;50.09;67386.28;5134194;27;20275;-66
2023/07/11 11:57:23;;;;;;;26.95;25.17;;;;;;;-141.02;50.87;66396.38;5134084;27;20227;-65
2023/07/11 11:59:50;;;;;;;26.08;24.38;;;;;;;-141.02;50.59;66396.38;5134100;27;20267;-62
2023/07/11 12:02:23;;;;;;;25.20;23.52;;;;;;;-141.02;51.82;68128.91;5133790;27;20311;-61
2023/07/11 12:05:00;;;;;;;25.67;24.08;;;;;;;-141.02;51.49;64912.06;5134023;27;20241;-62
2023/07/11 12:07:31;;;;;;;24.73;23.13;;;;;;;-141.02;51.32;66643.84;5133558;27;20633;-59
2023/07/11 12:10:17;;;;;;;24.58;22.98;;;;;;;-141.02;50.82;67138.78;5133601;27;20746;-58
2023/07/11 12:13:19;;;;;;;25.23;23.63;;;;;;;-141.02;50.21;67386.28;5133699;27;20319;-58
2023/07/11 12:15:53;;;;;;;24.92;23.33;;;;;;;-141.02;52.35;67881.38;5133441;27;20677;-67
2023/07/11 12:18:38;;;;;;;25.02;23.42;;;;;;;-141.02;51.71;66891.31;5133756;27;20192;-58
2023/07/11 12:21:22;;;;;;;26.13;24.42;;;;;;;-141.02;52.04;67386.28;5133890;27;20212;-67
2023/07/11 12:23:52;;;;;;;25.55;23.85;;;;;;;-141.02;49.73;66396.38;5130641;27;20722;-60
2023/07/11 12:26:22;;;;;;;24.98;23.38;;;;;;;-141.02;49.94;67138.78;5133313;27;20817;-58
2023/07/11 12:28:50;;;;;;;25.70;24.00;;;;;;;-141.02;49.56;65654.13;5133207;27;20287;-60
2023/07/11 12:31:22;;;;;;;25.10;23.50;;;;;;;-141.02;51.86;67138.78;5133231;27;20586;-62